Time;durP1;ratioP1;P1;durP2;ratioP2;P2;SDS_P1;SDS_P2;PMS_P1;PMS_P2;Temp;Humidity;BMP_temperature;BMP_pressure;BME280_temperature;BME280_humidity;BME280_pressure;Samples;Min_cycle;Max_cycle;Signal;HPM_P1;HPM_P2
2023/04/14 00:00:18;;;;;;;5.60;4.30;;;8.00;99.90;;;;;;2603954;54;20026;31
2023/04/14 00:02:53;;;;;;;6.88;4.20;;;8.00;99.90;;;;;;2603726;54;21907;31
2023/04/14 00:05:31;;;;;;;6.10;4.60;;;8.00;99.90;;;;;;2603798;54;20026;31
2023/04/14 00:08:11;;;;;;;6.38;4.57;;;8.00;99.90;;;;;;2603760;54;20651;31
2023/04/14 00:10:47;;;;;;;7.78;5.20;;;8.00;99.90;;;;;;2603594;54;20149;31
2023/04/14 00:13:21;;;;;;;5.20;3.63;;;8.00;99.90;;;;;;2621865;46;20030;31
2023/04/14 00:15:58;;;;;;;7.72;5.32;;;8.00;99.90;;;;;;2603556;54;20057;31
2023/04/14 00:18:33;;;;;;;6.95;4.63;;;8.00;99.90;;;;;;2603874;54;20044;31
2023/04/14 00:21:08;;;;;;;7.13;4.27;;;8.00;99.90;;;;;;2603600;54;20029;31
2023/04/14 00:23:46;;;;;;;6.15;3.85;;;8.00;99.90;;;;;;2621789;46;20026;31
2023/04/14 00:26:21;;;;;;;7.53;4.57;;;8.00;99.90;;;;;;2622187;46;20038;31
2023/04/14 00:28:59;;;;;;;5.20;3.45;;;8.00;99.90;;;;;;2603571;54;20050;31
2023/04/14 00:31:35;;;;;;;7.72;3.63;;;8.00;99.90;;;;;;2602945;54;20892;31
2023/04/14 00:34:11;;;;;;;7.47;4.22;;;7.90;99.90;;;;;;2603431;54;20112;31
2023/04/14 00:36:47;;;;;;;7.43;3.50;;;7.90;99.90;;;;;;2621952;46;20022;31
2023/04/14 00:39:26;;;;;;;6.60;3.70;;;7.90;99.90;;;;;;2603748;54;20290;31
2023/04/14 00:42:04;;;;;;;6.83;3.47;;;7.90;99.90;;;;;;2621933;46;20837;31
2023/04/14 00:44:40;;;;;;;8.68;3.40;;;7.90;99.90;;;;;;2603698;54;20905;31
2023/04/14 00:47:15;;;;;;;5.10;3.80;;;7.90;99.90;;;;;;2603230;54;20023;31
2023/04/14 00:49:50;;;;;;;6.53;4.13;;;7.90;99.90;;;;;;2622073;46;20027;31
2023/04/14 00:52:26;;;;;;;;;;;7.90;99.90;;;;;;2603765;54;20265;31
2023/04/14 00:55:08;;;;;;;5.75;4.40;;;7.90;99.90;;;;;;2603579;54;19942;31
2023/04/14 00:57:44;;;;;;;6.38;3.67;;;7.80;99.90;;;;;;2603422;54;20034;31
2023/04/14 01:00:20;;;;;;;8.63;4.40;;;7.80;99.90;;;;;;2603747;54;20860;31
2023/04/14 01:02:56;;;;;;;10.55;4.65;;;7.80;99.90;;;;;;2622080;46;20026;31
2023/04/14 01:05:32;;;;;;;6.60;3.67;;;7.80;99.90;;;;;;2603555;54;20839;31
2023/04/14 01:08:08;;;;;;;5.88;3.33;;;7.80;99.90;;;;;;2603631;54;20108;31
2023/04/14 01:10:50;;;;;;;7.75;4.00;;;7.90;99.90;;;;;;2603363;54;20928;31
2023/04/14 01:13:32;;;;;;;5.63;4.10;;;7.80;99.90;;;;;;2603530;54;20104;31
2023/04/14 01:16:11;;;;;;;8.13;3.80;;;7.80;99.90;;;;;;2603572;54;19939;31
2023/04/14 01:18:52;;;;;;;7.85;4.00;;;7.80;99.90;;;;;;2603438;54;20034;31
2023/04/14 01:21:31;;;;;;;6.22;3.97;;;7.90;99.90;;;;;;2621819;46;20619;31
2023/04/14 01:24:21;;;;;;;7.70;3.80;;;7.90;99.90;;;;;;2622035;46;20875;31
2023/04/14 01:27:05;;;;;;;6.05;3.70;;;7.80;99.90;;;;;;2603351;54;20128;31
2023/04/14 01:29:53;;;;;;;9.02;4.72;;;7.80;99.90;;;;;;2603559;54;20931;31
2023/04/14 01:32:33;;;;;;;6.90;3.75;;;7.90;99.90;;;;;;2603416;54;20026;31
2023/04/14 01:35:14;;;;;;;7.65;4.10;;;7.90;99.90;;;;;;2621710;46;20976;31
2023/04/14 01:37:54;;;;;;;7.75;3.95;;;7.90;99.90;;;;;;2603419;54;20023;31
2023/04/14 01:40:32;;;;;;;8.30;4.43;;;7.90;99.90;;;;;;2603471;54;20022;31
2023/04/14 01:43:14;;;;;;;7.25;4.60;;;7.90;99.90;;;;;;2603299;54;20033;31
2023/04/14 01:45:52;;;;;;;8.53;4.73;;;7.90;99.90;;;;;;2602805;54;20778;31
2023/04/14 01:48:31;;;;;;;9.35;4.47;;;7.90;99.90;;;;;;2603226;54;20157;31
2023/04/14 01:51:05;;;;;;;7.80;4.88;;;7.80;99.90;;;;;;2621290;46;20038;31
2023/04/14 01:53:41;;;;;;;7.63;5.70;;;7.80;99.90;;;;;;2603497;54;20117;31
2023/04/14 01:56:17;;;;;;;6.32;4.15;;;7.80;99.90;;;;;;2621796;46;20019;31
2023/04/14 01:58:54;;;;;;;9.83;4.93;;;7.80;99.90;;;;;;2603401;54;20851;31
2023/04/14 02:01:35;;;;;;;7.75;4.70;;;7.80;99.90;;;;;;2603243;54;20045;31
2023/04/14 02:04:15;;;;;;;11.97;5.47;;;7.80;99.90;;;;;;2622073;46;20109;31
2023/04/14 02:06:51;;;;;;;10.13;4.73;;;7.80;99.90;;;;;;2700864;39;20456;31
2023/04/14 02:09:30;;;;;;;6.72;4.45;;;7.80;99.90;;;;;;2603148;54;20031;31
2023/04/14 02:14:36;;;;;;;11.43;5.47;;;7.80;99.90;;;;;;2701874;39;21033;31
2023/04/14 02:17:17;;;;;;;11.15;5.93;;;7.80;99.90;;;;;;2701660;39;20509;31
2023/04/14 02:19:55;;;;;;;8.10;5.10;;;7.80;99.90;;;;;;2603485;54;20045;31
2023/04/14 02:22:33;;;;;;;7.50;5.45;;;7.80;99.90;;;;;;2621593;46;20473;31
2023/04/14 02:25:10;;;;;;;9.50;5.30;;;7.80;99.90;;;;;;2603388;54;20053;31
2023/04/14 02:27:48;;;;;;;6.70;5.18;;;7.80;99.90;;;;;;2603336;54;20105;31
2023/04/14 02:30:24;;;;;;;6.90;5.10;;;7.80;99.90;;;;;;2602593;54;20108;31
2023/04/14 02:33:02;;;;;;;8.00;5.65;;;7.80;99.90;;;;;;2602604;54;20113;31
2023/04/14 02:35:44;;;;;;;11.40;6.00;;;7.80;99.90;;;;;;2602332;54;20930;31
2023/04/14 02:38:24;;;;;;;8.40;5.90;;;7.80;99.90;;;;;;2602195;54;20052;31
2023/04/14 02:41:02;;;;;;;11.95;7.75;;;7.80;99.90;;;;;;2603101;54;20046;31
2023/04/14 02:43:42;;;;;;;8.77;6.63;;;7.80;99.90;;;;;;2602782;54;20030;31
2023/04/14 02:46:19;;;;;;;8.95;5.20;;;7.80;99.90;;;;;;2602509;54;20569;31
2023/04/14 02:49:01;;;;;;;10.02;6.10;;;7.80;99.90;;;;;;2603165;54;20537;31
2023/04/14 02:51:40;;;;;;;11.15;6.95;;;7.80;99.90;;;;;;2610983;47;20035;31
2023/04/14 02:54:18;;;;;;;10.63;6.93;;;7.80;99.90;;;;;;2602246;54;20813;31
2023/04/14 02:56:57;;;;;;;10.02;6.32;;;7.80;99.90;;;;;;2701846;39;21033;31
2023/04/14 02:59:34;;;;;;;10.85;5.75;;;7.80;99.90;;;;;;2602360;54;20038;31
2023/04/14 03:02:12;;;;;;;10.47;5.80;;;7.80;99.90;;;;;;2602906;54;20029;31
2023/04/14 03:04:54;;;;;;;10.47;5.73;;;7.80;99.90;;;;;;2603047;54;20085;31
2023/04/14 03:07:42;;;;;;;9.57;5.65;;;7.80;99.90;;;;;;2603158;54;20886;31
2023/04/14 03:10:24;;;;;;;9.43;5.95;;;7.80;99.90;;;;;;2603283;54;20027;31
2023/04/14 03:13:04;;;;;;;11.03;6.07;;;7.80;99.90;;;;;;2602106;54;20092;31
2023/04/14 03:15:40;;;;;;;9.95;5.95;;;7.80;99.90;;;;;;2621509;47;20097;31
2023/04/14 03:18:18;;;;;;;12.38;7.10;;;7.90;99.90;;;;;;2603272;54;20029;31
2023/04/14 03:20:54;;;;;;;13.20;7.38;;;7.80;99.90;;;;;;2603209;54;20117;31
2023/04/14 03:23:35;;;;;;;12.85;7.85;;;7.80;99.90;;;;;;2602187;54;20867;31
2023/04/14 03:26:19;;;;;;;12.85;6.72;;;7.80;99.90;;;;;;2603129;54;20045;31
2023/04/14 03:28:54;;;;;;;13.95;7.80;;;7.80;99.90;;;;;;2621259;47;20781;31
2023/04/14 03:31:33;;;;;;;11.38;7.30;;;7.80;99.90;;;;;;2603007;54;20903;31
2023/04/14 03:34:11;;;;;;;16.77;7.95;;;7.80;99.90;;;;;;2602964;54;20573;31
2023/04/14 03:36:51;;;;;;;17.83;9.10;;;7.80;99.90;;;;;;2603035;54;20852;31
2023/04/14 03:39:32;;;;;;;19.05;10.25;;;7.80;99.90;;;;;;2701664;39;21026;31
2023/04/14 03:42:10;;;;;;;19.33;11.10;;;7.80;99.90;;;;;;2720045;39;20481;31
2023/04/14 03:44:52;;;;;;;15.20;9.70;;;7.80;99.90;;;;;;2701699;39;20973;31
2023/04/14 03:47:30;;;;;;;19.10;10.40;;;7.80;99.90;;;;;;2602994;54;20030;31
2023/04/14 03:50:14;;;;;;;19.73;10.80;;;7.80;99.90;;;;;;2603309;54;20724;31
2023/04/14 03:52:54;;;;;;;22.13;11.63;;;7.80;99.90;;;;;;2603702;54;20026;31
2023/04/14 03:55:33;;;;;;;24.42;12.43;;;7.80;99.90;;;;;;2603689;54;20081;31
2023/04/14 03:58:11;;;;;;;26.27;14.30;;;7.70;99.90;;;;;;2622113;46;19998;31
2023/04/14 04:00:48;;;;;;;17.77;11.00;;;7.80;99.90;;;;;;2613109;46;20887;31
2023/04/14 04:03:23;;;;;;;24.83;13.52;;;7.80;99.90;;;;;;2603061;54;20875;31
2023/04/14 04:06:01;;;;;;;27.90;13.90;;;7.80;99.90;;;;;;2603101;54;20876;31
2023/04/14 04:08:36;;;;;;;25.48;13.48;;;7.80;99.90;;;;;;2615029;46;20915;31
2023/04/14 04:11:19;;;;;;;32.83;16.80;;;7.80;99.90;;;;;;2603720;54;20053;31
2023/04/14 04:13:58;;;;;;;43.63;19.83;;;7.80;99.90;;;;;;2603632;54;20049;31
2023/04/14 04:16:36;;;;;;;38.72;18.35;;;7.80;99.90;;;;;;2622274;46;19946;31
2023/04/14 04:19:12;;;;;;;37.05;17.70;;;7.80;99.90;;;;;;2603573;54;20027;31
2023/04/14 04:21:51;;;;;;;53.00;20.70;;;7.80;99.90;;;;;;2602759;54;20030;31
2023/04/14 04:24:29;;;;;;;53.30;23.02;;;7.80;99.90;;;;;;2603311;54;20676;31
2023/04/14 04:27:09;;;;;;;55.45;23.30;;;7.80;99.90;;;;;;2603581;54;20952;31
2023/04/14 04:30:01;;;;;;;49.88;24.10;;;7.80;99.90;;;;;;2603498;54;20069;31
2023/04/14 04:32:40;;;;;;;53.75;23.98;;;7.80;99.90;;;;;;2602759;54;19935;31
2023/04/14 04:35:18;;;;;;;47.10;23.33;;;7.80;99.90;;;;;;2603668;54;20085;31
2023/04/14 04:37:53;;;;;;;49.85;23.98;;;7.80;99.90;;;;;;2602632;54;20034;31
2023/04/14 04:40:30;;;;;;;47.95;24.90;;;7.80;99.90;;;;;;2603469;54;20034;31
2023/04/14 04:43:08;;;;;;;49.53;24.10;;;7.80;99.90;;;;;;2603487;54;20031;31
2023/04/14 04:46:01;;;;;;;40.28;21.90;;;7.80;99.90;;;;;;2603402;54;20023;31
2023/04/14 04:48:37;;;;;;;41.10;22.40;;;7.80;99.90;;;;;;2603223;54;21329;31
2023/04/14 04:51:13;;;;;;;38.58;21.42;;;7.90;99.90;;;;;;2702206;39;20477;31
2023/04/14 04:53:50;;;;;;;43.58;22.75;;;7.90;99.90;;;;;;2702238;39;20991;31
2023/04/14 04:56:26;;;;;;;48.20;24.17;;;7.90;99.90;;;;;;2603438;54;20733;31
2023/04/14 04:59:04;;;;;;;42.05;24.00;;;7.90;99.90;;;;;;2617292;46;20128;31
2023/04/14 05:01:40;;;;;;;52.65;24.42;;;7.90;99.90;;;;;;2603564;54;20030;31
2023/04/14 05:04:18;;;;;;;50.58;25.10;;;7.90;99.90;;;;;;2621814;46;20026;31
2023/04/14 05:06:57;;;;;;;42.57;24.03;;;7.90;99.90;;;;;;2603672;54;20157;31
2023/04/14 05:09:33;;;;;;;51.65;27.65;;;7.90;99.90;;;;;;2603352;54;20873;31
2023/04/14 05:12:09;;;;;;;50.90;26.00;;;7.90;99.90;;;;;;2621764;46;20851;31
2023/04/14 05:14:48;;;;;;;46.95;24.40;;;7.90;99.90;;;;;;2603201;54;20153;31
2023/04/14 05:17:24;;;;;;;35.55;21.90;;;7.90;99.90;;;;;;2603390;54;20854;31
2023/04/14 05:20:02;;;;;;;40.60;23.80;;;7.90;99.90;;;;;;2603318;54;20860;31
2023/04/14 05:22:38;;;;;;;41.78;23.65;;;8.00;99.90;;;;;;2603601;54;20865;31
2023/04/14 05:25:13;;;;;;;37.67;23.13;;;8.00;99.90;;;;;;2603569;54;20027;31
2023/04/14 05:27:48;;;;;;;48.63;24.52;;;8.00;99.90;;;;;;2603442;54;20958;31
2023/04/14 05:30:27;;;;;;;56.08;27.17;;;8.00;99.90;;;;;;2602833;54;20936;31
2023/04/14 05:33:03;;;;;;;47.53;26.70;;;8.00;99.90;;;;;;2602615;54;20030;31
2023/04/14 05:35:39;;;;;;;48.25;26.63;;;8.00;99.90;;;;;;2603313;54;20762;31
2023/04/14 05:38:14;;;;;;;;;;;8.00;99.90;;;;;;2602793;54;20956;31
2023/04/14 05:40:50;;;;;;;43.08;25.45;;;8.00;99.90;;;;;;2603523;54;19935;31
2023/04/14 05:43:30;;;;;;;42.80;25.07;;;8.00;99.90;;;;;;2615883;46;20037;31
2023/04/14 05:46:10;;;;;;;51.50;26.88;;;8.00;99.90;;;;;;2701993;39;20498;31
2023/04/14 05:48:46;;;;;;;52.55;26.30;;;8.00;99.90;;;;;;2603617;54;20112;31
2023/04/14 05:51:21;;;;;;;52.22;25.80;;;8.00;99.90;;;;;;2621766;46;20026;31
2023/04/14 05:53:57;;;;;;;44.50;24.92;;;8.00;99.90;;;;;;2621649;46;20023;31
2023/04/14 05:56:33;;;;;;;46.97;26.85;;;8.10;99.90;;;;;;2622003;46;20030;31
2023/04/14 05:59:09;;;;;;;45.80;26.38;;;8.10;99.90;;;;;;2603374;54;20027;31
2023/04/14 06:01:48;;;;;;;47.42;26.30;;;8.10;99.90;;;;;;2603216;54;20037;31
2023/04/14 06:04:25;;;;;;;45.17;25.17;;;8.10;99.90;;;;;;2603240;54;20049;31
2023/04/14 06:07:02;;;;;;;48.25;26.40;;;8.10;99.90;;;;;;2701923;39;21006;31
2023/04/14 06:09:38;;;;;;;56.00;28.75;;;8.10;99.90;;;;;;2603399;54;20059;31
2023/04/14 06:12:15;;;;;;;52.53;27.63;;;8.10;99.90;;;;;;2621115;46;20005;31
2023/04/14 06:14:56;;;;;;;55.45;28.50;;;8.10;99.90;;;;;;2603072;54;20278;31
2023/04/14 06:17:35;;;;;;;49.92;27.10;;;8.10;99.90;;;;;;2603359;54;20112;31
2023/04/14 06:20:14;;;;;;;50.30;26.10;;;8.10;99.90;;;;;;2603351;54;20036;31
2023/04/14 06:22:50;;;;;;;60.83;28.45;;;8.20;99.90;;;;;;2603228;54;20913;31
2023/04/14 06:25:26;;;;;;;48.80;27.60;;;8.20;99.90;;;;;;2603277;54;20031;31
2023/04/14 06:28:06;;;;;;;46.75;25.77;;;8.20;99.90;;;;;;2603467;54;20026;31
2023/04/14 06:30:40;;;;;;;50.47;25.70;;;8.20;99.90;;;;;;2603289;54;20026;31
2023/04/14 06:33:19;;;;;;;56.70;25.38;;;8.20;99.90;;;;;;2603408;54;19956;31
2023/04/14 06:35:55;;;;;;;43.80;24.00;;;8.20;99.90;;;;;;2603008;54;20026;31
2023/04/14 06:38:32;;;;;;;48.28;25.27;;;8.30;99.90;;;;;;2603069;54;20026;31
2023/04/14 06:41:08;;;;;;;45.67;25.15;;;8.30;99.90;;;;;;2603068;54;20026;31
2023/04/14 06:43:43;;;;;;;;;;;8.30;99.90;;;;;;2603477;54;20029;31
2023/04/14 06:46:19;;;;;;;45.80;25.65;;;8.30;99.90;;;;;;2621465;47;19934;31
2023/04/14 06:48:57;;;;;;;41.15;23.35;;;8.40;99.90;;;;;;2603171;54;20106;31
2023/04/14 06:51:39;;;;;;;48.08;24.92;;;8.40;99.90;;;;;;2602505;54;20060;31
2023/04/14 06:54:15;;;;;;;49.47;25.50;;;8.40;99.90;;;;;;2700360;39;20497;31
2023/04/14 06:56:50;;;;;;;44.45;26.23;;;8.50;99.90;;;;;;2602119;54;20089;31
2023/04/14 06:59:28;;;;;;;44.65;25.20;;;8.50;99.90;;;;;;2603313;54;20840;31
2023/04/14 07:04:57;;;;;;;48.00;26.37;;;8.60;99.90;;;;;;2603089;54;20023;31
2023/04/14 07:07:38;;;;;;;44.50;25.60;;;8.60;99.90;;;;;;2603232;54;20032;31
2023/04/14 07:10:16;;;;;;;45.80;25.83;;;8.70;99.90;;;;;;2604756;47;20050;31
2023/04/14 07:12:52;;;;;;;43.80;25.80;;;8.70;99.90;;;;;;2603134;54;21159;31
2023/04/14 07:15:35;;;;;;;39.20;23.63;;;8.70;99.90;;;;;;2621490;47;20034;31
2023/04/14 07:18:11;;;;;;;35.83;22.33;;;8.70;99.90;;;;;;2602680;54;20034;31
2023/04/14 07:20:51;;;;;;;41.73;23.33;;;8.70;99.90;;;;;;2617235;47;20668;31
2023/04/14 07:23:27;;;;;;;44.78;26.88;;;8.70;99.90;;;;;;2603281;54;21245;31
2023/04/14 07:26:03;;;;;;;39.35;23.85;;;8.80;99.90;;;;;;2603960;54;20038;31
2023/04/14 07:28:38;;;;;;;;;;;8.80;99.90;;;;;;2604057;54;20026;31
2023/04/14 07:31:21;;;;;;;41.53;23.70;;;8.80;99.90;;;;;;2619422;46;20485;31
2023/04/14 07:33:57;;;;;;;43.08;25.10;;;8.90;99.90;;;;;;2603702;54;19934;31
2023/04/14 07:36:36;;;;;;;45.28;25.17;;;8.80;99.90;;;;;;2603589;54;20791;31
2023/04/14 07:39:13;;;;;;;42.65;26.08;;;8.80;99.90;;;;;;2603734;54;20703;31
2023/04/14 07:41:48;;;;;;;49.70;27.30;;;8.80;99.90;;;;;;2603973;54;20033;31
2023/04/14 07:44:23;;;;;;;41.00;23.92;;;8.80;99.90;;;;;;2603778;54;20871;31
2023/04/14 07:47:00;;;;;;;42.45;25.10;;;8.90;99.90;;;;;;2603705;54;20899;31
2023/04/14 07:49:36;;;;;;;43.70;25.37;;;8.90;99.90;;;;;;2622210;46;20033;31
2023/04/14 07:52:16;;;;;;;44.55;26.90;;;8.90;99.90;;;;;;2603760;54;20035;31
2023/04/14 07:54:54;;;;;;;45.95;27.90;;;8.90;99.90;;;;;;2602782;54;20861;31
2023/04/14 07:57:32;;;;;;;43.90;27.52;;;8.90;99.90;;;;;;2604011;54;20026;31
2023/04/14 08:00:08;;;;;;;50.27;29.70;;;8.90;99.90;;;;;;2603948;54;20038;31
2023/04/14 08:02:47;;;;;;;51.90;28.58;;;9.00;99.90;;;;;;2603803;54;20552;31
2023/04/14 08:05:23;;;;;;;51.28;27.52;;;9.00;99.90;;;;;;2602936;54;20754;31
2023/04/14 08:08:04;;;;;;;44.30;26.65;;;9.00;99.90;;;;;;2603809;54;20927;31
2023/04/14 08:10:40;;;;;;;40.20;26.48;;;9.00;99.90;;;;;;2603554;54;20060;31
2023/04/14 08:13:21;;;;;;;43.97;26.27;;;9.00;99.90;;;;;;2602821;54;20887;31
2023/04/14 08:15:56;;;;;;;40.40;25.55;;;9.10;99.90;;;;;;2603591;54;20892;31
2023/04/14 08:18:33;;;;;;;42.10;26.30;;;9.10;99.90;;;;;;2603603;54;20161;31
2023/04/14 08:21:13;;;;;;;35.38;24.67;;;9.10;99.90;;;;;;2603669;54;20030;31
2023/04/14 08:23:54;;;;;;;40.30;25.93;;;9.10;99.90;;;;;;2602713;54;20920;31
2023/04/14 08:26:30;;;;;;;44.03;27.53;;;9.10;99.90;;;;;;2603797;54;20057;31
2023/04/14 08:29:05;;;;;;;;;;;9.10;99.90;;;;;;2603772;54;20106;31
2023/04/14 08:31:41;;;;;;;37.63;24.30;;;9.20;99.90;;;;;;2603579;54;19935;31
2023/04/14 08:34:16;;;;;;;;;;;9.20;99.90;;;;;;2622235;46;20031;31
2023/04/14 08:37:02;;;;;;;39.47;26.40;;;9.20;99.90;;;;;;2603549;54;20652;31
2023/04/14 08:39:41;;;;;;;46.45;27.48;;;9.30;99.90;;;;;;2621529;46;20054;31
2023/04/14 08:42:15;;;;;;;45.88;26.95;;;9.30;99.90;;;;;;2621726;46;20770;31
2023/04/14 08:44:51;;;;;;;41.15;26.05;;;9.40;99.90;;;;;;2603604;54;20631;31
2023/04/14 08:47:27;;;;;;;42.70;26.73;;;9.40;99.90;;;;;;2603532;54;20789;31
2023/04/14 08:50:06;;;;;;;42.25;27.88;;;9.40;99.90;;;;;;2621686;46;20030;31
2023/04/14 08:52:43;;;;;;;40.85;27.45;;;9.40;99.90;;;;;;2603451;54;20030;31
2023/04/14 08:55:20;;;;;;;55.25;30.45;;;9.50;99.90;;;;;;2603597;54;20057;31
2023/04/14 08:57:56;;;;;;;50.13;29.90;;;9.50;99.90;;;;;;2621973;46;20049;31
2023/04/14 09:00:33;;;;;;;49.58;29.95;;;9.50;99.90;;;;;;2622133;46;20667;31
2023/04/14 09:03:09;;;;;;;49.13;31.23;;;9.50;99.90;;;;;;2603616;54;20520;31
2023/04/14 09:05:45;;;;;;;51.83;32.00;;;9.60;99.90;;;;;;2621871;46;20109;31
2023/04/14 09:08:20;;;;;;;48.22;32.10;;;9.60;99.90;;;;;;2603447;54;20031;31
2023/04/14 09:10:59;;;;;;;53.78;32.75;;;9.60;99.90;;;;;;2603373;54;20786;31
2023/04/14 09:13:37;;;;;;;50.17;33.03;;;9.60;99.90;;;;;;2603384;54;20981;31
2023/04/14 09:16:14;;;;;;;52.65;32.10;;;9.70;99.90;;;;;;2603308;54;20030;31
2023/04/14 09:18:51;;;;;;;53.30;34.72;;;9.70;99.90;;;;;;2603617;54;20032;31
2023/04/14 09:21:31;;;;;;;51.53;33.72;;;9.80;99.90;;;;;;2603361;54;20089;31
2023/04/14 09:24:28;;;;;;;54.83;34.42;;;9.80;99.90;;;;;;2603521;54;20026;31
2023/04/14 09:27:09;;;;;;;52.90;34.38;;;9.80;99.90;;;;;;2603402;54;20854;31
2023/04/14 09:29:46;;;;;;;54.45;35.00;;;9.90;99.90;;;;;;2603483;54;20026;31
2023/04/14 09:32:26;;;;;;;55.65;36.08;;;9.90;99.90;;;;;;2603557;54;20904;31
2023/04/14 09:35:05;;;;;;;64.93;40.37;;;9.90;99.90;;;;;;2622045;46;20101;31
2023/04/14 09:37:48;;;;;;;64.20;42.30;;;10.00;99.90;;;;;;2603370;54;20030;31
2023/04/14 09:40:31;;;;;;;63.00;41.13;;;10.00;99.90;;;;;;2613363;46;20062;31
2023/04/14 09:43:28;;;;;;;68.07;41.45;;;10.10;99.90;;;;;;2603500;54;20026;31
2023/04/14 09:46:08;;;;;;;68.22;41.83;;;10.10;99.90;;;;;;2603285;54;20023;31
2023/04/14 09:48:56;;;;;;;73.85;47.53;;;10.20;99.90;;;;;;2603152;54;20031;31
2023/04/14 09:51:33;;;;;;;78.82;47.20;;;10.20;99.90;;;;;;2621677;46;20038;31
2023/04/14 09:54:09;;;;;;;70.90;44.20;;;10.30;99.90;;;;;;2603281;54;20081;31
2023/04/14 09:56:48;;;;;;;68.97;42.40;;;10.40;99.90;;;;;;2603229;54;20037;31
2023/04/14 09:59:38;;;;;;;74.60;47.42;;;10.40;99.90;;;;;;2701666;39;20519;31
2023/04/14 10:02:15;;;;;;;76.85;48.42;;;10.50;99.90;;;;;;2603462;54;20033;31
2023/04/14 10:04:51;;;;;;;68.28;45.83;;;10.50;99.90;;;;;;2621668;46;20031;31
2023/04/14 10:07:30;;;;;;;69.57;44.90;;;10.60;99.90;;;;;;2602930;54;20097;31
2023/04/14 10:10:16;;;;;;;78.25;48.45;;;10.70;99.90;;;;;;2603192;54;20033;31
2023/04/14 10:12:52;;;;;;;75.22;46.33;;;10.80;99.90;;;;;;2603312;54;20030;31
2023/04/14 10:15:38;;;;;;;71.45;46.20;;;10.90;99.90;;;;;;2603245;54;20900;31
2023/04/14 10:18:12;;;;;;;60.28;41.20;;;11.10;99.90;;;;;;2621337;46;20041;31
2023/04/14 10:20:49;;;;;;;61.85;43.58;;;11.10;99.90;;;;;;2603150;54;20859;31
2023/04/14 10:23:25;;;;;;;;;;;11.20;99.90;;;;;;2702213;39;21141;31
2023/04/14 10:26:01;;;;;;;68.70;43.90;;;11.30;99.90;;;;;;2603375;54;20016;31
2023/04/14 10:28:41;;;;;;;64.82;43.00;;;11.40;99.90;;;;;;2603399;54;20906;31
2023/04/14 10:31:24;;;;;;;63.95;43.65;;;11.50;99.90;;;;;;2603319;54;20030;31
2023/04/14 10:34:04;;;;;;;63.13;43.67;;;11.60;99.90;;;;;;2603112;54;20055;31
2023/04/14 10:36:40;;;;;;;63.15;41.65;;;11.60;99.90;;;;;;2602413;54;20968;31
2023/04/14 10:39:18;;;;;;;;;;;11.70;99.90;;;;;;2621948;46;20089;31
2023/04/14 10:41:54;;;;;;;56.72;39.38;;;11.70;99.90;;;;;;2602439;54;19950;31
2023/04/14 10:44:33;;;;;;;62.17;43.73;;;11.70;99.90;;;;;;2602539;54;20782;31
2023/04/14 10:47:13;;;;;;;62.38;44.28;;;11.80;99.90;;;;;;2602966;54;20032;31
2023/04/14 10:49:50;;;;;;;56.05;37.95;;;11.80;99.90;;;;;;2603199;54;20815;31
2023/04/14 10:52:50;;;;;;;63.53;43.33;;;11.80;99.90;;;;;;2603075;54;20840;31
2023/04/14 10:55:26;;;;;;;60.95;43.83;;;11.80;99.90;;;;;;2621685;47;20841;31
2023/04/14 10:58:05;;;;;;;;;;;11.80;99.90;;;;;;2603475;54;20153;31
2023/04/14 11:00:43;;;;;;;62.67;41.75;;;11.80;99.90;;;;;;2603838;54;19941;31
2023/04/14 11:03:22;;;;;;;60.57;41.77;;;11.90;99.90;;;;;;2604143;54;20019;31
2023/04/14 11:05:59;;;;;;;59.63;44.00;;;11.90;99.90;;;;;;2603707;54;20027;31
2023/04/14 11:08:37;;;;;;;60.53;42.63;;;12.00;99.90;;;;;;2603859;54;20779;31
2023/04/14 11:11:13;;;;;;;62.17;44.43;;;12.00;99.90;;;;;;2603881;54;20031;31
2023/04/14 11:13:50;;;;;;;;;;;12.00;99.90;;;;;;2604079;54;20078;31
2023/04/14 11:16:30;;;;;;;67.03;44.23;;;12.10;99.90;;;;;;2614944;46;20478;31
2023/04/14 11:19:19;;;;;;;58.75;43.90;;;12.10;99.90;;;;;;2603625;54;20740;31
2023/04/14 11:21:55;;;;;;;60.65;43.92;;;12.20;99.90;;;;;;2604075;54;20042;31
2023/04/14 11:24:31;;;;;;;;;;;12.20;99.90;;;;;;2604145;54;20026;31
2023/04/14 11:27:06;;;;;;;57.53;43.65;;;12.30;99.90;;;;;;2603622;54;20041;31
2023/04/14 11:29:44;;;;;;;57.83;42.30;;;12.30;99.90;;;;;;2603635;54;20046;31
2023/04/14 11:32:20;;;;;;;62.53;44.67;;;12.30;99.90;;;;;;2603990;54;20022;31
2023/04/14 11:34:58;;;;;;;60.47;45.78;;;12.30;99.90;;;;;;2603814;54;20899;31
2023/04/14 11:37:38;;;;;;;62.95;43.72;;;12.40;99.90;;;;;;2603591;54;20845;31
2023/04/14 11:40:14;;;;;;;57.78;42.20;;;12.40;99.90;;;;;;2622257;46;20026;31
2023/04/14 11:42:53;;;;;;;;;;;12.50;99.90;;;;;;2603307;54;20111;31
2023/04/14 11:45:30;;;;;;;56.22;42.80;;;12.50;99.90;;;;;;2622363;46;20821;31
2023/04/14 11:48:08;;;;;;;58.05;42.55;;;12.50;99.90;;;;;;2701384;39;21367;31
2023/04/14 11:50:46;;;;;;;55.50;41.40;;;12.60;99.90;;;;;;2702264;39;21346;31
2023/04/14 11:53:26;;;;;;;58.33;42.33;;;12.70;99.90;;;;;;2622069;46;20030;31
2023/04/14 11:56:01;;;;;;;51.70;42.20;;;12.80;99.90;;;;;;2603803;54;20103;31
2023/04/14 11:58:37;;;;;;;58.83;43.70;;;12.80;99.90;;;;;;2603567;54;20913;31
2023/04/14 12:03:48;;;;;;;55.97;43.75;;;12.90;99.90;;;;;;2603357;54;20035;31
2023/04/14 12:06:26;;;;;;;59.40;43.05;;;13.00;99.90;;;;;;2702243;39;20481;31
2023/04/14 12:09:05;;;;;;;52.80;40.30;;;13.10;99.90;;;;;;2621955;46;20026;31
2023/04/14 12:11:41;;;;;;;59.90;43.95;;;13.20;99.90;;;;;;2602955;54;20925;31
2023/04/14 12:14:18;;;;;;;;;;;13.20;99.90;;;;;;2622582;46;20034;31
2023/04/14 12:16:54;;;;;;;57.65;41.75;;;13.20;99.90;;;;;;2603521;54;20016;31
2023/04/14 12:19:29;;;;;;;;;;;13.30;99.90;;;;;;2603687;54;20096;31
2023/04/14 12:22:10;;;;;;;57.40;43.33;;;13.30;99.90;;;;;;2603638;54;19956;31
2023/04/14 12:24:46;;;;;;;56.13;43.45;;;13.30;99.90;;;;;;2603791;54;20026;31
2023/04/14 12:27:22;;;;;;;58.90;43.15;;;13.30;99.90;;;;;;2603609;54;20096;31
2023/04/14 12:30:00;;;;;;;59.17;45.13;;;13.40;99.90;;;;;;2702158;39;21618;31
2023/04/14 12:32:42;;;;;;;54.88;40.88;;;13.40;99.90;;;;;;2622294;46;20144;31
2023/04/14 12:35:18;;;;;;;54.97;42.22;;;13.50;99.90;;;;;;2602893;54;20880;31
2023/04/14 12:37:59;;;;;;;58.70;44.03;;;13.60;99.90;;;;;;2603618;54;20776;31
2023/04/14 12:40:42;;;;;;;54.28;42.75;;;13.70;99.90;;;;;;2602669;54;20041;31
2023/04/14 12:43:29;;;;;;;54.83;45.33;;;13.60;99.90;;;;;;2603896;54;20027;31
2023/04/14 12:48:44;;;;;;;54.05;41.90;;;13.60;99.90;;;;;;2622213;46;20030;31
2023/04/14 12:51:21;;;;;;;54.55;41.70;;;13.60;99.90;;;;;;2603590;54;20755;31
2023/04/14 12:54:15;;;;;;;51.40;40.72;;;13.60;99.90;;;;;;2603368;54;20756;31
2023/04/14 12:56:56;;;;;;;53.67;42.45;;;13.60;99.90;;;;;;2603622;54;20031;31
2023/04/14 12:59:33;;;;;;;54.63;43.75;;;13.50;99.90;;;;;;2617967;46;20037;31
2023/04/14 13:02:11;;;;;;;55.60;43.80;;;13.40;99.90;;;;;;2603463;54;21566;31
2023/04/14 13:04:50;;;;;;;56.80;43.95;;;13.40;99.90;;;;;;2603548;54;20708;31
2023/04/14 13:07:26;;;;;;;59.00;44.15;;;13.40;99.90;;;;;;2603627;54;20030;31
2023/04/14 13:10:06;;;;;;;58.95;45.30;;;13.40;99.90;;;;;;2602620;54;20925;31
2023/04/14 13:12:42;;;;;;;59.00;44.25;;;13.30;99.90;;;;;;2791648;31;20571;31
2023/04/14 13:15:18;;;;;;;55.15;43.63;;;13.30;99.90;;;;;;2603406;54;20861;31
2023/04/14 13:18:17;;;;;;;58.50;45.90;;;13.20;99.90;;;;;;2603421;54;20027;31
2023/04/14 13:20:56;;;;;;;60.20;45.50;;;13.20;99.90;;;;;;2701907;39;21038;31
2023/04/14 13:23:32;;;;;;;62.10;46.25;;;13.20;99.90;;;;;;2603497;54;20113;31
2023/04/14 13:26:11;;;;;;;58.85;45.83;;;13.20;99.90;;;;;;2602621;54;20969;31
2023/04/14 13:28:49;;;;;;;56.42;42.45;;;13.20;99.90;;;;;;2608648;46;20121;31
2023/04/14 13:31:26;;;;;;;58.92;44.88;;;13.20;99.90;;;;;;2701875;39;20586;31
2023/04/14 13:34:05;;;;;;;59.35;45.03;;;13.20;99.90;;;;;;2603661;54;20023;31
2023/04/14 13:36:44;;;;;;;59.90;45.10;;;13.20;99.90;;;;;;2603260;54;20866;31
2023/04/14 13:39:22;;;;;;;59.30;45.08;;;13.20;99.90;;;;;;2603416;54;20052;31
2023/04/14 13:42:02;;;;;;;62.55;46.08;;;13.20;99.90;;;;;;2603543;54;20911;31
2023/04/14 13:44:52;;;;;;;59.60;46.50;;;13.20;99.90;;;;;;2603217;54;20087;31
2023/04/14 13:47:30;;;;;;;62.55;48.05;;;13.30;99.90;;;;;;2603319;54;20894;31
2023/04/14 13:50:12;;;;;;;64.72;49.28;;;13.20;99.90;;;;;;2603324;54;20864;31
2023/04/14 13:52:52;;;;;;;61.95;46.38;;;13.20;99.90;;;;;;2603682;54;20085;31
2023/04/14 13:55:33;;;;;;;60.65;47.65;;;13.10;99.90;;;;;;2603307;54;20977;31
2023/04/14 13:58:11;;;;;;;62.33;48.28;;;13.10;99.90;;;;;;2791505;31;20612;31
2023/04/14 14:00:54;;;;;;;60.03;48.83;;;13.10;99.90;;;;;;2621703;46;20880;31